sensor_id;sensor_type;location;lat;lon;timestamp;pressure;altitude;pressure_sealevel;temperature;humidity
27437;BME280;14886;51.586;6.722;2023-11-25T00:05:19;1009.8;;;2.0;94.6
27437;BME280;14886;51.586;6.722;2023-11-25T00:09:19;1009.8;;;1.9;94.4
27437;BME280;14886;51.586;6.722;2023-11-25T00:11:20;1009.9;;;1.8;94.5
27437;BME280;14886;51.586;6.722;2023-11-25T00:12:20;1009.9;;;1.7;94.7
27437;BME280;14886;51.586;6.722;2023-11-25T00:13:20;1009.9;;;1.6;95.0
27437;BME280;14886;51.586;6.722;2023-11-25T00:14:20;1009.9;;;1.5;95.1
27437;BME280;14886;51.586;6.722;2023-11-25T00:19:20;1009.9;;;1.6;95.2
27437;BME280;14886;51.586;6.722;2023-11-25T00:21:21;1009.9;;;1.5;95.2
27437;BME280;14886;51.586;6.722;2023-11-25T00:26:21;1009.9;;;1.4;95.9
27437;BME280;14886;51.586;6.722;2023-11-25T00:27:21;1009.9;;;1.3;96.0
27437;BME280;14886;51.586;6.722;2023-11-25T00:28:21;1009.9;;;1.2;96.1
27437;BME280;14886;51.586;6.722;2023-11-25T00:30:22;1009.8;;;1.3;96.1
27437;BME280;14886;51.586;6.722;2023-11-25T00:33:22;1009.7;;;1.4;96.0
27437;BME280;14886;51.586;6.722;2023-11-25T00:37:22;1009.8;;;1.5;96.1
27437;BME280;14886;51.586;6.722;2023-11-25T00:41:23;1009.8;;;1.6;96.0
27437;BME280;14886;51.586;6.722;2023-11-25T00:42:23;1009.8;;;1.8;95.7
27437;BME280;14886;51.586;6.722;2023-11-25T00:43:23;1009.8;;;1.7;95.8
27437;BME280;14886;51.586;6.722;2023-11-25T00:45:23;1009.8;;;1.6;95.7
27437;BME280;14886;51.586;6.722;2023-11-25T00:46:23;1009.8;;;1.7;95.5
27437;BME280;14886;51.586;6.722;2023-11-25T00:49:23;1009.8;;;1.8;95.5
27437;BME280;14886;51.586;6.722;2023-11-25T00:53:24;1009.9;;;1.7;94.9
27437;BME280;14886;51.586;6.722;2023-11-25T00:55:24;1009.8;;;1.6;95.1
27437;BME280;14886;51.586;6.722;2023-11-25T00:59:24;1009.9;;;1.7;95.3
27437;BME280;14886;51.586;6.722;2023-11-25T01:00:24;1009.9;;;1.6;95.4
27437;BME280;14886;51.586;6.722;2023-11-25T01:01:25;1009.9;;;1.7;95.5
27437;BME280;14886;51.586;6.722;2023-11-25T01:04:25;1009.8;;;1.8;95.3
27437;BME280;14886;51.586;6.722;2023-11-25T01:06:25;1009.9;;;1.7;95.3
27437;BME280;14886;51.586;6.722;2023-11-25T01:08:26;1009.9;;;1.6;95.5
27437;BME280;14886;51.586;6.722;2023-11-25T01:09:25;1009.9;;;1.8;95.2
27437;BME280;14886;51.586;6.722;2023-11-25T01:10:25;1009.9;;;1.7;95.3
27437;BME280;14886;51.586;6.722;2023-11-25T01:12:26;1009.9;;;1.8;94.9
27437;BME280;14886;51.586;6.722;2023-11-25T01:17:26;1010.0;;;1.7;95.2
27437;BME280;14886;51.586;6.722;2023-11-25T01:21:26;1010.1;;;1.8;95.4
27437;BME280;14886;51.586;6.722;2023-11-25T01:23:27;1010.1;;;1.7;95.3
27437;BME280;14886;51.586;6.722;2023-11-25T01:31:28;1010.1;;;1.8;95.7
27437;BME280;14886;51.586;6.722;2023-11-25T01:33:28;1010.1;;;1.7;95.9
27437;BME280;14886;51.586;6.722;2023-11-25T01:35:28;1010.1;;;1.8;95.9
27437;BME280;14886;51.586;6.722;2023-11-25T01:40:28;1010.1;;;1.7;95.9
27437;BME280;14886;51.586;6.722;2023-11-25T01:43:29;1010.0;;;1.8;96.0
27437;BME280;14886;51.586;6.722;2023-11-25T01:44:29;1010.0;;;1.7;96.0
27437;BME280;14886;51.586;6.722;2023-11-25T01:45:29;1010.0;;;1.9;95.7
27437;BME280;14886;51.586;6.722;2023-11-25T01:47:29;1010.0;;;1.8;95.6
27437;BME280;14886;51.586;6.722;2023-11-25T01:48:29;1010.0;;;1.9;95.6
27437;BME280;14886;51.586;6.722;2023-11-25T01:49:29;1010.0;;;2.0;95.4
27437;BME280;14886;51.586;6.722;2023-11-25T01:50:29;1010.0;;;2.1;95.0
27437;BME280;14886;51.586;6.722;2023-11-25T01:52:29;1010.1;;;2.0;95.1
27437;BME280;14886;51.586;6.722;2023-11-25T01:55:30;1010.1;;;2.1;94.5
27437;BME280;14886;51.586;6.722;2023-11-25T02:00:30;1010.2;;;2.2;93.5
27437;BME280;14886;51.586;6.722;2023-11-25T02:04:31;1010.1;;;2.1;93.4
27437;BME280;14886;51.586;6.722;2023-11-25T02:08:31;1010.1;;;2.2;93.4
27437;BME280;14886;51.586;6.722;2023-11-25T02:10:31;1010.1;;;2.1;93.4
27437;BME280;14886;51.586;6.722;2023-11-25T02:13:32;1010.1;;;2.0;93.7
27437;BME280;14886;51.586;6.722;2023-11-25T02:16:32;1010.1;;;1.9;93.9
27437;BME280;14886;51.586;6.722;2023-11-25T02:18:32;1010.1;;;2.0;93.6
27437;BME280;14886;51.586;6.722;2023-11-25T02:19:32;1010.1;;;1.9;93.8
27437;BME280;14886;51.586;6.722;2023-11-25T02:21:32;1010.1;;;2.0;93.7
27437;BME280;14886;51.586;6.722;2023-11-25T02:23:33;1010.1;;;1.9;93.8
27437;BME280;14886;51.586;6.722;2023-11-25T02:26:33;1010.0;;;2.0;93.8
27437;BME280;14886;51.586;6.722;2023-11-25T02:39:34;1010.2;;;2.1;93.2
27437;BME280;14886;51.586;6.722;2023-11-25T02:43:35;1010.1;;;2.0;93.4
27437;BME280;14886;51.586;6.722;2023-11-25T02:45:35;1010.2;;;2.1;93.3
27437;BME280;14886;51.586;6.722;2023-11-25T02:47:35;1010.2;;;2.0;93.4
27437;BME280;14886;51.586;6.722;2023-11-25T02:48:35;1010.2;;;2.1;93.0
27437;BME280;14886;51.586;6.722;2023-11-25T02:49:35;1010.2;;;2.2;92.7
27437;BME280;14886;51.586;6.722;2023-11-25T02:51:35;1010.2;;;2.1;92.9
27437;BME280;14886;51.586;6.722;2023-11-25T02:52:35;1010.2;;;2.2;92.8
27437;BME280;14886;51.586;6.722;2023-11-25T02:53:35;1010.2;;;2.1;93.2
27437;BME280;14886;51.586;6.722;2023-11-25T02:59:36;1010.1;;;2.0;93.5
27437;BME280;14886;51.586;6.722;2023-11-25T03:00:36;1010.1;;;2.1;93.5
27437;BME280;14886;51.586;6.722;2023-11-25T03:05:37;1010.2;;;2.2;93.4
27437;BME280;14886;51.586;6.722;2023-11-25T03:07:37;1010.2;;;2.3;93.2
27437;BME280;14886;51.586;6.722;2023-11-25T03:08:37;1010.2;;;2.4;92.8
27437;BME280;14886;51.586;6.722;2023-11-25T03:09:37;1010.2;;;2.5;92.5
27437;BME280;14886;51.586;6.722;2023-11-25T03:11:37;1010.2;;;2.4;93.0
27437;BME280;14886;51.586;6.722;2023-11-25T03:15:38;1010.1;;;2.5;92.7
27437;BME280;14886;51.586;6.722;2023-11-25T03:19:38;1010.2;;;2.4;93.0
27437;BME280;14886;51.586;6.722;2023-11-25T03:21:38;1010.2;;;2.3;93.2
27437;BME280;14886;51.586;6.722;2023-11-25T03:25:39;1010.2;;;2.2;93.6
27437;BME280;14886;51.586;6.722;2023-11-25T03:27:39;1010.1;;;2.3;93.3
27437;BME280;14886;51.586;6.722;2023-11-25T03:28:39;1010.1;;;2.2;93.4
27437;BME280;14886;51.586;6.722;2023-11-25T03:29:39;1010.1;;;2.3;93.3
27437;BME280;14886;51.586;6.722;2023-11-25T03:30:39;1010.1;;;2.2;93.3
27437;BME280;14886;51.586;6.722;2023-11-25T03:34:40;1010.1;;;2.1;93.7
27437;BME280;14886;51.586;6.722;2023-11-25T03:37:40;1010.1;;;2.2;93.7
27437;BME280;14886;51.586;6.722;2023-11-25T03:39:40;1010.1;;;2.1;93.8
27437;BME280;14886;51.586;6.722;2023-11-25T03:42:40;1010.1;;;2.0;94.0
27437;BME280;14886;51.586;6.722;2023-11-25T03:49:41;1010.1;;;2.1;94.4
27437;BME280;14886;51.586;6.722;2023-11-25T03:56:42;1009.9;;;2.0;94.4
27437;BME280;14886;51.586;6.722;2023-11-25T03:58:42;1009.9;;;2.1;94.4
27437;BME280;14886;51.586;6.722;2023-11-25T03:59:42;1009.9;;;2.2;94.0
27437;BME280;14886;51.586;6.722;2023-11-25T04:07:43;1009.9;;;2.3;93.7
27437;BME280;14886;51.586;6.722;2023-11-25T04:08:43;1010.0;;;2.2;93.8
27437;BME280;14886;51.586;6.722;2023-11-25T04:10:43;1010.0;;;2.3;93.7
27437;BME280;14886;51.586;6.722;2023-11-25T04:11:43;1010.0;;;2.2;93.8
27437;BME280;14886;51.586;6.722;2023-11-25T04:13:43;1009.9;;;2.1;93.9
27437;BME280;14886;51.586;6.722;2023-11-25T04:16:44;1009.9;;;2.2;94.0
27437;BME280;14886;51.586;6.722;2023-11-25T04:17:44;1009.9;;;2.1;94.0
27437;BME280;14886;51.586;6.722;2023-11-25T04:19:44;1009.9;;;2.2;93.9
27437;BME280;14886;51.586;6.722;2023-11-25T04:22:45;1009.9;;;2.1;94.0
27437;BME280;14886;51.586;6.722;2023-11-25T04:23:44;1009.9;;;2.2;93.9
27437;BME280;14886;51.586;6.722;2023-11-25T04:24:45;1009.9;;;2.1;94.1
27437;BME280;14886;51.586;6.722;2023-11-25T04:26:46;1010.0;;;2.2;94.0
27437;BME280;14886;51.586;6.722;2023-11-25T04:28:45;1010.0;;;2.1;94.1
27437;BME280;14886;51.586;6.722;2023-11-25T04:30:45;1010.0;;;2.2;94.0
27437;BME280;14886;51.586;6.722;2023-11-25T04:33:45;1010.0;;;2.1;94.1
27437;BME280;14886;51.586;6.722;2023-11-25T04:34:46;1010.0;;;2.2;94.0
27437;BME280;14886;51.586;6.722;2023-11-25T04:38:46;1010.0;;;2.3;94.1
27437;BME280;14886;51.586;6.722;2023-11-25T04:43:47;1009.9;;;2.4;94.0
27437;BME280;14886;51.586;6.722;2023-11-25T04:44:47;1009.9;;;2.5;93.6
27437;BME280;14886;51.586;6.722;2023-11-25T04:46:47;1010.0;;;2.6;93.1
27437;BME280;14886;51.586;6.722;2023-11-25T04:48:47;1010.0;;;2.5;93.3
27437;BME280;14886;51.586;6.722;2023-11-25T04:57:48;1009.9;;;2.6;93.5
27437;BME280;14886;51.586;6.722;2023-11-25T04:58:48;1009.9;;;2.7;93.2
27437;BME280;14886;51.586;6.722;2023-11-25T05:02:48;1009.9;;;2.8;93.0
27437;BME280;14886;51.586;6.722;2023-11-25T05:05:49;1010.0;;;2.9;92.7
27437;BME280;14886;51.586;6.722;2023-11-25T05:09:49;1010.0;;;3.1;92.0
27437;BME280;14886;51.586;6.722;2023-11-25T05:11:49;1009.9;;;3.2;91.2
27437;BME280;14886;51.586;6.722;2023-11-25T05:13:49;1009.9;;;3.1;91.8
27437;BME280;14886;51.586;6.722;2023-11-25T05:14:50;1009.9;;;3.2;91.7
27437;BME280;14886;51.586;6.722;2023-11-25T05:20:50;1009.9;;;3.3;91.0
27437;BME280;14886;51.586;6.722;2023-11-25T05:23:50;1009.9;;;3.4;90.7
27437;BME280;14886;51.586;6.722;2023-11-25T05:28:51;1009.8;;;3.5;90.0
27437;BME280;14886;51.586;6.722;2023-11-25T05:30:51;1009.8;;;3.4;90.2
27437;BME280;14886;51.586;6.722;2023-11-25T05:31:51;1009.9;;;3.5;90.2
27437;BME280;14886;51.586;6.722;2023-11-25T05:32:51;1009.9;;;3.4;90.6
27437;BME280;14886;51.586;6.722;2023-11-25T05:33:51;1009.9;;;3.6;89.6
27437;BME280;14886;51.586;6.722;2023-11-25T05:37:52;1009.9;;;3.5;89.9
27437;BME280;14886;51.586;6.722;2023-11-25T05:38:52;1009.9;;;3.6;90.0
27437;BME280;14886;51.586;6.722;2023-11-25T05:42:52;1010.0;;;3.7;89.5
27437;BME280;14886;51.586;6.722;2023-11-25T05:47:53;1010.0;;;3.8;89.5
27437;BME280;14886;51.586;6.722;2023-11-25T05:48:53;1010.0;;;3.7;90.0
27437;BME280;14886;51.586;6.722;2023-11-25T05:49:53;1010.0;;;3.9;89.0
27437;BME280;14886;51.586;6.722;2023-11-25T05:50:53;1010.0;;;3.8;89.5
27437;BME280;14886;51.586;6.722;2023-11-25T05:54:53;1010.0;;;3.7;90.8
27437;BME280;14886;51.586;6.722;2023-11-25T05:55:53;1010.0;;;3.8;90.6
27437;BME280;14886;51.586;6.722;2023-11-25T05:57:54;1010.0;;;3.9;90.0
27437;BME280;14886;51.586;6.722;2023-11-25T05:58:54;1010.0;;;4.0;89.3
27437;BME280;14886;51.586;6.722;2023-11-25T06:00:54;1009.9;;;3.9;90.6
27437;BME280;14886;51.586;6.722;2023-11-25T06:03:54;1010.0;;;4.0;90.0
27437;BME280;14886;51.586;6.722;2023-11-25T06:06:55;1010.0;;;3.9;90.6
27437;BME280;14886;51.586;6.722;2023-11-25T06:07:55;1010.0;;;4.0;90.6
27437;BME280;14886;51.586;6.722;2023-11-25T06:08:55;1010.1;;;3.9;90.8
27437;BME280;14886;51.586;6.722;2023-11-25T06:09:55;1010.1;;;4.0;90.9
27437;BME280;14886;51.586;6.722;2023-11-25T06:12:55;1010.1;;;4.1;90.0
27437;BME280;14886;51.586;6.722;2023-11-25T06:15:56;1010.1;;;4.0;91.3
27437;BME280;14886;51.586;6.722;2023-11-25T06:22:56;1010.2;;;3.9;92.0
27437;BME280;14886;51.586;6.722;2023-11-25T06:27:57;1010.0;;;3.8;92.5
27437;BME280;14886;51.586;6.722;2023-11-25T06:29:57;1010.0;;;3.7;92.7
27437;BME280;14886;51.586;6.722;2023-11-25T06:31:57;1010.0;;;3.6;93.0
27437;BME280;14886;51.586;6.722;2023-11-25T06:35:57;1009.8;;;3.5;92.6
27437;BME280;14886;51.586;6.722;2023-11-25T06:36:58;1009.8;;;3.4;92.7
27437;BME280;14886;51.586;6.722;2023-11-25T06:41:58;1009.9;;;3.3;92.8
27437;BME280;14886;51.586;6.722;2023-11-25T06:44:58;1009.9;;;3.2;92.9
27437;BME280;14886;51.586;6.722;2023-11-25T06:47:59;1009.8;;;3.1;93.0
27437;BME280;14886;51.586;6.722;2023-11-25T06:48:59;1009.8;;;3.0;93.5
27437;BME280;14886;51.586;6.722;2023-11-25T06:49:59;1009.8;;;2.9;93.6
27437;BME280;14886;51.586;6.722;2023-11-25T06:50:59;1009.8;;;3.0;93.5
27437;BME280;14886;51.586;6.722;2023-11-25T06:54:59;1009.7;;;3.1;93.1
27437;BME280;14886;51.586;6.722;2023-11-25T06:59:00;1009.7;;;3.0;92.8
27437;BME280;14886;51.586;6.722;2023-11-25T07:01:00;1009.7;;;3.1;92.6
27437;BME280;14886;51.586;6.722;2023-11-25T07:08:01;1009.6;;;3.2;91.7
27437;BME280;14886;51.586;6.722;2023-11-25T07:10:01;1009.5;;;3.1;92.1
27437;BME280;14886;51.586;6.722;2023-11-25T07:11:01;1009.6;;;3.2;92.0
27437;BME280;14886;51.586;6.722;2023-11-25T07:16:02;1009.6;;;3.3;91.7
27437;BME280;14886;51.586;6.722;2023-11-25T07:23:02;1009.5;;;3.4;91.8
27437;BME280;14886;51.586;6.722;2023-11-25T07:29:03;1009.5;;;3.5;91.9
27437;BME280;14886;51.586;6.722;2023-11-25T07:31:03;1009.5;;;3.6;91.3
27437;BME280;14886;51.586;6.722;2023-11-25T07:32:03;1009.5;;;3.7;91.6
27437;BME280;14886;51.586;6.722;2023-11-25T07:37:04;1009.5;;;3.8;91.2
27437;BME280;14886;51.586;6.722;2023-11-25T07:38:04;1009.5;;;3.9;90.6
27437;BME280;14886;51.586;6.722;2023-11-25T07:39:04;1009.5;;;4.0;90.9
27437;BME280;14886;51.586;6.722;2023-11-25T07:42:04;1009.6;;;3.9;90.7
27437;BME280;14886;51.586;6.722;2023-11-25T07:43:04;1009.6;;;4.0;89.8
27437;BME280;14886;51.586;6.722;2023-11-25T07:52:05;1009.7;;;4.1;89.7
27437;BME280;14886;51.586;6.722;2023-11-25T07:53:05;1009.6;;;4.0;90.1
27437;BME280;14886;51.586;6.722;2023-11-25T07:54:06;1009.7;;;4.1;89.7
27437;BME280;14886;51.586;6.722;2023-11-25T07:55:06;1009.7;;;4.0;90.0
27437;BME280;14886;51.586;6.722;2023-11-25T07:56:06;1009.7;;;4.1;90.2
27437;BME280;14886;51.586;6.722;2023-11-25T07:57:06;1009.7;;;4.0;90.5
27437;BME280;14886;51.586;6.722;2023-11-25T08:04:06;1009.7;;;4.1;90.1
27437;BME280;14886;51.586;6.722;2023-11-25T08:17:08;1009.6;;;4.2;92.0
27437;BME280;14886;51.586;6.722;2023-11-25T08:18:08;1009.6;;;4.1;92.1
27437;BME280;14886;51.586;6.722;2023-11-25T08:20:08;1009.6;;;4.2;92.3
27437;BME280;14886;51.586;6.722;2023-11-25T08:24:09;1009.6;;;4.3;91.9
27437;BME280;14886;51.586;6.722;2023-11-25T08:25:08;1009.6;;;4.2;91.9
27437;BME280;14886;51.586;6.722;2023-11-25T08:27:09;1009.7;;;4.3;91.8
27437;BME280;14886;51.586;6.722;2023-11-25T08:33:09;1009.7;;;4.2;92.2
27437;BME280;14886;51.586;6.722;2023-11-25T08:40:10;1009.7;;;4.3;92.6
27437;BME280;14886;51.586;6.722;2023-11-25T08:41:10;1009.7;;;4.2;92.7
27437;BME280;14886;51.586;6.722;2023-11-25T08:43:10;1009.7;;;4.3;92.7
27437;BME280;14886;51.586;6.722;2023-11-25T08:47:11;1009.7;;;4.4;92.2
27437;BME280;14886;51.586;6.722;2023-11-25T08:49:12;1009.7;;;4.3;92.1
27437;BME280;14886;51.586;6.722;2023-11-25T08:54:11;1009.7;;;4.4;92.3
27437;BME280;14886;51.586;6.722;2023-11-25T08:56:12;1009.7;;;4.5;92.2
27437;BME280;14886;51.586;6.722;2023-11-25T08:57:12;1009.7;;;4.4;91.9
27437;BME280;14886;51.586;6.722;2023-11-25T08:58:12;1009.7;;;4.5;91.7
27437;BME280;14886;51.586;6.722;2023-11-25T09:00:12;1009.8;;;4.7;91.3
27437;BME280;14886;51.586;6.722;2023-11-25T09:01:12;1009.8;;;5.0;91.0
27437;BME280;14886;51.586;6.722;2023-11-25T09:04:13;1009.7;;;4.8;91.4
27437;BME280;14886;51.586;6.722;2023-11-25T09:05:13;1009.7;;;4.7;92.0
27437;BME280;14886;51.586;6.722;2023-11-25T09:07:13;1009.7;;;4.6;92.5
27437;BME280;14886;51.586;6.722;2023-11-25T09:08:13;1009.7;;;4.5;92.7
27437;BME280;14886;51.586;6.722;2023-11-25T09:09:13;1009.7;;;4.6;92.1
27437;BME280;14886;51.586;6.722;2023-11-25T09:10:13;1009.6;;;4.7;91.6
27437;BME280;14886;51.586;6.722;2023-11-25T09:11:13;1009.7;;;4.8;91.6
27437;BME280;14886;51.586;6.722;2023-11-25T09:12:13;1009.6;;;4.7;91.3
27437;BME280;14886;51.586;6.722;2023-11-25T09:13:13;1009.7;;;4.9;91.1
27437;BME280;14886;51.586;6.722;2023-11-25T09:14:13;1009.7;;;5.2;90.5
27437;BME280;14886;51.586;6.722;2023-11-25T09:15:13;1009.7;;;5.4;89.7
27437;BME280;14886;51.586;6.722;2023-11-25T09:16:13;1009.7;;;5.6;89.2
27437;BME280;14886;51.586;6.722;2023-11-25T09:17:14;1009.7;;;5.9;88.8
27437;BME280;14886;51.586;6.722;2023-11-25T09:18:14;1009.6;;;5.8;88.1
27437;BME280;14886;51.586;6.722;2023-11-25T09:20:15;1009.5;;;5.6;88.4
27437;BME280;14886;51.586;6.722;2023-11-25T09:21:14;1009.6;;;5.8;88.5
27437;BME280;14886;51.586;6.722;2023-11-25T09:23:14;1009.6;;;5.7;88.1
27437;BME280;14886;51.586;6.722;2023-11-25T09:24:14;1009.6;;;5.9;87.6
27437;BME280;14886;51.586;6.722;2023-11-25T09:26:14;1009.6;;;6.0;87.3
27437;BME280;14886;51.586;6.722;2023-11-25T09:28:15;1009.5;;;5.7;87.8
27437;BME280;14886;51.586;6.722;2023-11-25T09:29:15;1009.6;;;6.1;87.4
27437;BME280;14886;51.586;6.722;2023-11-25T09:30:15;1009.6;;;6.3;86.5
27437;BME280;14886;51.586;6.722;2023-11-25T09:31:15;1009.6;;;7.0;85.2
27437;BME280;14886;51.586;6.722;2023-11-25T09:32:15;1009.6;;;6.9;85.0
27437;BME280;14886;51.586;6.722;2023-11-25T09:33:15;1009.5;;;6.7;85.4
27437;BME280;14886;51.586;6.722;2023-11-25T09:34:15;1009.5;;;6.5;85.8
27437;BME280;14886;51.586;6.722;2023-11-25T09:36:15;1009.5;;;6.7;85.8
27437;BME280;14886;51.586;6.722;2023-11-25T09:37:16;1009.5;;;6.1;86.7
27437;BME280;14886;51.586;6.722;2023-11-25T09:38:16;1009.5;;;6.2;86.2
27437;BME280;14886;51.586;6.722;2023-11-25T09:40:16;1009.3;;;5.7;87.8
27437;BME280;14886;51.586;6.722;2023-11-25T09:41:16;1009.3;;;5.4;88.4
27437;BME280;14886;51.586;6.722;2023-11-25T09:42:16;1009.4;;;5.2;88.9
27437;BME280;14886;51.586;6.722;2023-11-25T09:43:16;1009.4;;;5.1;88.9
27437;BME280;14886;51.586;6.722;2023-11-25T09:45:16;1009.5;;;5.3;88.7
27437;BME280;14886;51.586;6.722;2023-11-25T09:46:16;1009.5;;;6.0;87.2
27437;BME280;14886;51.586;6.722;2023-11-25T09:47:16;1009.5;;;6.3;86.4
27437;BME280;14886;51.586;6.722;2023-11-25T09:49:17;1009.5;;;6.1;87.1
27437;BME280;14886;51.586;6.722;2023-11-25T09:50:17;1009.4;;;5.8;88.2
27437;BME280;14886;51.586;6.722;2023-11-25T09:51:17;1009.4;;;5.5;88.5
27437;BME280;14886;51.586;6.722;2023-11-25T09:53:19;1009.4;;;5.6;88.7
27437;BME280;14886;51.586;6.722;2023-11-25T09:55:17;1009.4;;;5.8;88.3
27437;BME280;14886;51.586;6.722;2023-11-25T09:58:18;1009.4;;;6.0;87.5
27437;BME280;14886;51.586;6.722;2023-11-25T09:59:18;1009.4;;;5.9;87.9
27437;BME280;14886;51.586;6.722;2023-11-25T10:00:18;1009.4;;;6.0;87.9
27437;BME280;14886;51.586;6.722;2023-11-25T10:01:18;1009.4;;;5.9;87.9
27437;BME280;14886;51.586;6.722;2023-11-25T10:02:18;1009.4;;;5.8;87.9
27437;BME280;14886;51.586;6.722;2023-11-25T10:03:18;1009.4;;;5.9;88.2
27437;BME280;14886;51.586;6.722;2023-11-25T10:04:18;1009.4;;;5.8;88.1
27437;BME280;14886;51.586;6.722;2023-11-25T10:05:18;1009.4;;;5.9;88.0
27437;BME280;14886;51.586;6.722;2023-11-25T10:06:18;1009.3;;;5.8;88.2
27437;BME280;14886;51.586;6.722;2023-11-25T10:07:18;1009.3;;;5.7;88.1
27437;BME280;14886;51.586;6.722;2023-11-25T10:08:19;1009.4;;;5.8;88.0
27437;BME280;14886;51.586;6.722;2023-11-25T10:13:19;1009.3;;;5.7;88.3
27437;BME280;14886;51.586;6.722;2023-11-25T10:15:19;1009.4;;;5.6;88.1
27437;BME280;14886;51.586;6.722;2023-11-25T10:16:24;1009.4;;;5.7;88.5
27437;BME280;14886;51.586;6.722;2023-11-25T10:19:20;1009.4;;;5.6;88.5
27437;BME280;14886;51.586;6.722;2023-11-25T10:24:20;1009.3;;;5.5;88.6
27437;BME280;14886;51.586;6.722;2023-11-25T10:28:20;1009.3;;;5.6;89.6
27437;BME280;14886;51.586;6.722;2023-11-25T10:31:21;1009.3;;;5.7;89.7
27437;BME280;14886;51.586;6.722;2023-11-25T10:34:22;1009.2;;;5.9;89.2
27437;BME280;14886;51.586;6.722;2023-11-25T10:36:21;1009.2;;;6.1;88.1
27437;BME280;14886;51.586;6.722;2023-11-25T10:37:21;1009.3;;;6.4;88.5
27437;BME280;14886;51.586;6.722;2023-11-25T10:38:22;1009.2;;;6.5;87.6
27437;BME280;14886;51.586;6.722;2023-11-25T10:40:23;1009.2;;;6.4;87.3
27437;BME280;14886;51.586;6.722;2023-11-25T10:42:22;1009.2;;;6.3;87.4
27437;BME280;14886;51.586;6.722;2023-11-25T10:44:22;1009.2;;;6.2;87.3
27437;BME280;14886;51.586;6.722;2023-11-25T10:45:22;1009.2;;;6.1;87.0
27437;BME280;14886;51.586;6.722;2023-11-25T10:47:30;1009.1;;;6.2;88.0
27437;BME280;14886;51.586;6.722;2023-11-25T10:48:22;1009.1;;;6.1;87.5
27437;BME280;14886;51.586;6.722;2023-11-25T10:53:23;1009.0;;;6.0;88.7
27437;BME280;14886;51.586;6.722;2023-11-25T10:55:23;1009.0;;;6.1;88.8
27437;BME280;14886;51.586;6.722;2023-11-25T11:01:24;1009.1;;;6.2;88.8
27437;BME280;14886;51.586;6.722;2023-11-25T11:03:24;1009.0;;;6.1;88.8
27437;BME280;14886;51.586;6.722;2023-11-25T11:04:25;1009.1;;;6.2;88.8
27437;BME280;14886;51.586;6.722;2023-11-25T11:06:26;1009.1;;;6.4;88.1
27437;BME280;14886;51.586;6.722;2023-11-25T11:07:24;1009.1;;;6.5;87.8
27437;BME280;14886;51.586;6.722;2023-11-25T11:08:26;1009.2;;;6.4;88.1
27437;BME280;14886;51.586;6.722;2023-11-25T11:09:25;1009.1;;;6.3;88.0
27437;BME280;14886;51.586;6.722;2023-11-25T11:11:25;1009.1;;;6.4;87.7
27437;BME280;14886;51.586;6.722;2023-11-25T11:12:29;1009.1;;;6.2;87.8
27437;BME280;14886;51.586;6.722;2023-11-25T11:13:27;1009.1;;;6.1;88.1
27437;BME280;14886;51.586;6.722;2023-11-25T11:14:25;1009.1;;;6.0;87.6
27437;BME280;14886;51.586;6.722;2023-11-25T11:17:27;1009.0;;;6.1;88.8
27437;BME280;14886;51.586;6.722;2023-11-25T11:20:27;1009.0;;;6.0;88.0
27437;BME280;14886;51.586;6.722;2023-11-25T11:21:28;1009.0;;;6.1;88.0
27437;BME280;14886;51.586;6.722;2023-11-25T11:23:26;1009.0;;;6.2;88.0
27437;BME280;14886;51.586;6.722;2023-11-25T11:24:27;1009.0;;;6.3;88.4
27437;BME280;14886;51.586;6.722;2023-11-25T11:26:27;1009.0;;;6.4;88.4
27437;BME280;14886;51.586;6.722;2023-11-25T11:27:27;1009.0;;;6.3;87.4
27437;BME280;14886;51.586;6.722;2023-11-25T11:28:29;1008.9;;;6.4;87.3
27437;BME280;14886;51.586;6.722;2023-11-25T11:29:27;1009.0;;;6.3;88.0
27437;BME280;14886;51.586;6.722;2023-11-25T11:34:27;1008.9;;;6.3;87.1
27437;BME280;14886;51.586;6.722;2023-11-25T11:36:28;1008.9;;;6.2;86.9
27437;BME280;14886;51.586;6.722;2023-11-25T11:39:31;1009.0;;;6.3;86.6
27437;BME280;14886;51.586;6.722;2023-11-25T11:40:27;1009.0;;;6.4;85.8
27437;BME280;14886;51.586;6.722;2023-11-25T11:42:28;1009.0;;;6.3;86.0
27437;BME280;14886;51.586;6.722;2023-11-25T11:43:28;1008.9;;;6.2;85.6
27437;BME280;14886;51.586;6.722;2023-11-25T11:44:28;1008.9;;;6.3;85.7
27437;BME280;14886;51.586;6.722;2023-11-25T11:45:28;1008.9;;;6.4;85.9
27437;BME280;14886;51.586;6.722;2023-11-25T11:47:28;1008.9;;;6.3;86.1
27437;BME280;14886;51.586;6.722;2023-11-25T11:49:28;1008.9;;;6.2;86.3
27437;BME280;14886;51.586;6.722;2023-11-25T11:50:29;1009.0;;;6.5;85.7
27437;BME280;14886;51.586;6.722;2023-11-25T11:52:29;1008.9;;;6.4;85.8
27437;BME280;14886;51.586;6.722;2023-11-25T11:53:29;1008.9;;;6.5;86.2
27437;BME280;14886;51.586;6.722;2023-11-25T11:54:29;1008.9;;;6.3;86.0
27437;BME280;14886;51.586;6.722;2023-11-25T11:55:33;1008.9;;;6.4;86.5
27437;BME280;14886;51.586;6.722;2023-11-25T11:57:29;1008.9;;;6.6;86.3
27437;BME280;14886;51.586;6.722;2023-11-25T11:58:29;1009.0;;;6.7;86.4
27437;BME280;14886;51.586;6.722;2023-11-25T12:00:30;1009.0;;;6.9;85.8
27437;BME280;14886;51.586;6.722;2023-11-25T12:01:30;1009.0;;;6.8;86.2
27437;BME280;14886;51.586;6.722;2023-11-25T12:02:31;1008.9;;;6.7;86.3
27437;BME280;14886;51.586;6.722;2023-11-25T12:04:30;1008.9;;;6.4;87.2
27437;BME280;14886;51.586;6.722;2023-11-25T12:05:30;1008.9;;;6.3;87.6
27437;BME280;14886;51.586;6.722;2023-11-25T12:09:30;1008.9;;;6.4;88.7
27437;BME280;14886;51.586;6.722;2023-11-25T12:10:31;1008.9;;;6.5;88.9
27437;BME280;14886;51.586;6.722;2023-11-25T12:11:31;1008.9;;;6.4;89.3
27437;BME280;14886;51.586;6.722;2023-11-25T12:13:32;1008.9;;;6.5;89.1
27437;BME280;14886;51.586;6.722;2023-11-25T12:14:31;1008.9;;;6.6;89.0
27437;BME280;14886;51.586;6.722;2023-11-25T12:18:32;1008.8;;;6.4;89.3
27437;BME280;14886;51.586;6.722;2023-11-25T12:20:31;1008.8;;;6.5;89.3
27437;BME280;14886;51.586;6.722;2023-11-25T12:21:32;1008.8;;;6.4;89.3
27437;BME280;14886;51.586;6.722;2023-11-25T12:22:32;1008.8;;;6.5;89.0
27437;BME280;14886;51.586;6.722;2023-11-25T12:24:33;1008.7;;;6.6;88.4
27437;BME280;14886;51.586;6.722;2023-11-25T12:29:33;1008.8;;;6.5;89.4
27437;BME280;14886;51.586;6.722;2023-11-25T12:31:33;1008.8;;;6.4;89.9
27437;BME280;14886;51.586;6.722;2023-11-25T12:32:33;1008.8;;;6.5;90.1
27437;BME280;14886;51.586;6.722;2023-11-25T12:33:33;1008.8;;;6.4;90.2
27437;BME280;14886;51.586;6.722;2023-11-25T12:38:33;1008.8;;;6.5;90.5
27437;BME280;14886;51.586;6.722;2023-11-25T12:46:34;1008.6;;;6.4;89.7
27437;BME280;14886;51.586;6.722;2023-11-25T12:49:34;1008.7;;;6.6;90.1
27437;BME280;14886;51.586;6.722;2023-11-25T12:56:35;1008.7;;;6.7;88.5
27437;BME280;14886;51.586;6.722;2023-11-25T12:58:35;1008.7;;;6.6;87.9
27437;BME280;14886;51.586;6.722;2023-11-25T13:08:37;1008.7;;;6.5;87.7
27437;BME280;14886;51.586;6.722;2023-11-25T13:11:36;1008.7;;;6.4;88.0
27437;BME280;14886;51.586;6.722;2023-11-25T13:12:37;1008.7;;;6.5;88.3
27437;BME280;14886;51.586;6.722;2023-11-25T13:14:37;1008.7;;;6.4;87.9
27437;BME280;14886;51.586;6.722;2023-11-25T13:21:38;1008.7;;;6.3;88.7
27437;BME280;14886;51.586;6.722;2023-11-25T13:23:38;1008.7;;;6.2;88.7
27437;BME280;14886;51.586;6.722;2023-11-25T13:24:38;1008.6;;;6.3;88.8
27437;BME280;14886;51.586;6.722;2023-11-25T13:25:38;1008.6;;;6.2;89.3
27437;BME280;14886;51.586;6.722;2023-11-25T13:27:39;1008.6;;;6.1;88.7
27437;BME280;14886;51.586;6.722;2023-11-25T13:28:38;1008.6;;;6.2;88.8
27437;BME280;14886;51.586;6.722;2023-11-25T13:34:39;1008.5;;;6.3;88.4